Map

Track Data

SID SEASON NUMBER BASIN SUBBASIN NAME ISO_TIME NATURE LAT LON WMO_WIND WMO_PRES WMO_AGENCY TRACK_TYPE DIST2LAND LANDFALL IFLAG USA_AGENCY USA_ATCF_ID USA_LAT USA_LON USA_RECORD USA_STATUS USA_WIND USA_PRES USA_SSHS USA_R34_NE USA_R34_SE USA_R34_SW USA_R34_NW USA_R50_NE USA_R50_SE USA_R50_SW USA_R50_NW USA_R64_NE USA_R64_SE USA_R64_SW USA_R64_NW USA_POCI USA_ROCI USA_RMW USA_EYE TOKYO_LAT TOKYO_LON TOKYO_GRADE TOKYO_WIND TOKYO_PRES TOKYO_R50_DIR TOKYO_R50_LONG TOKYO_R50_SHORT TOKYO_R30_DIR TOKYO_R30_LONG TOKYO_R30_SHORT TOKYO_LAND CMA_LAT CMA_LON CMA_CAT CMA_WIND CMA_PRES HKO_LAT HKO_LON HKO_CAT HKO_WIND HKO_PRES NEWDELHI_LAT NEWDELHI_LON NEWDELHI_GRADE NEWDELHI_WIND NEWDELHI_PRES NEWDELHI_CI NEWDELHI_DP NEWDELHI_POCI REUNION_LAT REUNION_LON REUNION_TYPE REUNION_WIND REUNION_PRES REUNION_TNUM REUNION_CI REUNION_RMW REUNION_R34_NE REUNION_R34_SE REUNION_R34_SW REUNION_R34_NW REUNION_R50_NE REUNION_R50_SE REUNION_R50_SW REUNION_R50_NW REUNION_R64_NE REUNION_R64_SE REUNION_R64_SW REUNION_R64_NW BOM_LAT BOM_LON BOM_TYPE BOM_WIND BOM_PRES BOM_TNUM BOM_CI BOM_RMW BOM_R34_NE BOM_R34_SE BOM_R34_SW BOM_R34_NW BOM_R50_NE BOM_R50_SE BOM_R50_SW BOM_R50_NW BOM_R64_NE BOM_R64_SE BOM_R64_SW BOM_R64_NW BOM_ROCI BOM_POCI BOM_EYE BOM_POS_METHOD BOM_PRES_METHOD NADI_LAT NADI_LON NADI_CAT NADI_WIND NADI_PRES WELLINGTON_LAT WELLINGTON_LON WELLINGTON_WIND WELLINGTON_PRES DS824_LAT DS824_LON DS824_STAGE DS824_WIND DS824_PRES TD9636_LAT TD9636_LON TD9636_STAGE TD9636_WIND TD9636_PRES TD9635_LAT TD9635_LON TD9635_WIND TD9635_PRES TD9635_ROCI NEUMANN_LAT NEUMANN_LON NEUMANN_CLASS NEUMANN_WIND NEUMANN_PRES MLC_LAT MLC_LON MLC_CLASS MLC_WIND MLC_PRES USA_GUST BOM_GUST BOM_GUST_PER REUNION_GUST REUNION_GUST_PER USA_SEAHGT USA_SEARAD_NE USA_SEARAD_SE USA_SEARAD_SW USA_SEARAD_NW STORM_SPEED STORM_DIR
1943217N22144 1943 50 WP MM NOT_NAMED 1943-08-04 21:00:00 NR 22.0000 144.100 main 1496 1494 __________O___ -1 22.0000 144.100 7 6 238
1943217N22144 1943 50 WP MM NOT_NAMED 1943-08-05 00:00:00 NR 21.8380 143.823 main 1509 1506 __________P___ -1 21.8380 143.823 7 6 237
1943217N22144 1943 50 WP MM NOT_NAMED 1943-08-05 03:00:00 NR 21.6706 143.557 main 1514 1509 __________P___ -1 21.6706 143.557 7 6 234
1943217N22144 1943 50 WP MM NOT_NAMED 1943-08-05 06:00:00 NR 21.4929 143.312 main 1519 1519 __________P___ -1 21.4929 143.312 7 6 229
1943217N22144 1943 50 WP MM NOT_NAMED 1943-08-05 09:00:00 NR 21.3000 143.100 main 1529 1529 __________O___ -1 21.3000 143.100 7 5 222
1943217N22144 1943 50 WP MM NOT_NAMED 1943-08-05 12:00:00 NR 21.0906 142.924 main 1540 1540 __________P___ -1 21.0906 142.924 7 5 216
1943217N22144 1943 50 WP MM NOT_NAMED 1943-08-05 15:00:00 NR 20.8770 142.765 main 1556 1552 __________P___ -1 20.8770 142.765 7 5 216
1943217N22144 1943 50 WP MM NOT_NAMED 1943-08-05 18:00:00 NR 20.6749 142.599 main 1568 1568 __________P___ -1 20.6749 142.599 7 5 222
1943217N22144 1943 50 WP MM NOT_NAMED 1943-08-05 21:00:00 NR 20.5000 142.400 main 1580 1576 __________O___ -1 20.5000 142.400 7 5 234
1943217N22144 1943 50 WP MM NOT_NAMED 1943-08-06 00:00:00 NR 20.3631 142.144 main 1579 1579 __________P___ -1 20.3631 142.144 7 6 244
1943217N22144 1943 50 WP MM NOT_NAMED 1943-08-06 03:00:00 NR 20.2550 141.853 main 1582 1581 __________P___ -1 20.2550 141.853 7 6 251
1943217N22144 1943 50 WP MM NOT_NAMED 1943-08-06 06:00:00 NR 20.1693 141.535 main 1577 1577 __________P___ -1 20.1693 141.535 7 6 256
1943217N22144 1943 50 WP MM NOT_NAMED 1943-08-06 09:00:00 NR 20.1000 141.200 main 1578 1571 __________O___ -1 20.1000 141.200 7 6 257
1943217N22144 1943 50 WP MM NOT_NAMED 1943-08-06 12:00:00 NR 20.0271 140.889 main 1579 1569 __________P___ -1 20.0271 140.889 7 6 258
1943217N22144 1943 50 WP MM NOT_NAMED 1943-08-06 15:00:00 NR 19.9693 140.560 main 1569 1556 __________P___ -1 19.9693 140.560 7 7 261
1943217N22144 1943 50 WP MM NOT_NAMED 1943-08-06 18:00:00 NR 19.9269 140.201 main 1556 1534 __________P___ -1 19.9269 140.201 7 7 264
1943217N22144 1943 50 WP MM NOT_NAMED 1943-08-06 21:00:00 NR 19.9000 139.800 main 1534 1512 __________O___ -1 19.9000 139.800 7 8 266
1943217N22144 1943 50 WP MM NOT_NAMED 1943-08-07 00:00:00 NR 19.8738 139.331 main 1507 1486 __________P___ -1 19.8738 139.331 7 9 268
1943217N22144 1943 50 WP MM NOT_NAMED 1943-08-07 03:00:00 NR 19.8630 138.822 main 1481 1454 __________P___ -1 19.8630 138.822 7 10 270
1943217N22144 1943 50 WP MM NOT_NAMED 1943-08-07 06:00:00 NR 19.8706 138.303 main 1454 1429 __________P___ -1 19.8706 138.303 7 10 272
1943217N22144 1943 50 WP MM NOT_NAMED 1943-08-07 09:00:00 NR 19.9000 137.800 main 1429 1409 __________O___ -1 19.9000 137.800 7 9 273
1943217N22144 1943 50 WP MM NOT_NAMED 1943-08-07 12:00:00 NR 19.9116 137.389 main 1409 1391 __________P___ -1 19.9116 137.389 7 8 274
1943217N22144 1943 50 WP MM NOT_NAMED 1943-08-07 15:00:00 NR 19.9506 136.993 main 1380 1363 __________P___ -1 19.9506 136.993 7 8 280
1943217N22144 1943 50 WP MM NOT_NAMED 1943-08-07 18:00:00 NR 20.0395 136.576 main 1363 1321 __________P___ -1 20.0395 136.576 7 9 287
1943217N22144 1943 50 WP MM NOT_NAMED 1943-08-07 21:00:00 NR 20.2000 136.100 main 1321 1277 __________O___ -1 20.2000 136.100 7 11 291
1943217N22144 1943 50 WP MM NOT_NAMED 1943-08-08 00:00:00 NR 20.4420 135.483 main 1277 1221 __________P___ -1 20.4420 135.483 7 13 295
1943217N22144 1943 50 WP MM NOT_NAMED 1943-08-08 03:00:00 NR 20.7541 134.809 main 1210 1159 __________P___ -1 20.7541 134.809 7 14 298
1943217N22144 1943 50 WP MM NOT_NAMED 1943-08-08 06:00:00 NR 21.1140 134.130 main 1156 1097 __________P___ -1 21.1140 134.130 7 14 301
1943217N22144 1943 50 WP MM NOT_NAMED 1943-08-08 09:00:00 NR 21.5000 133.500 main 1097 1041 __________O___ -1 21.5000 133.500 7 13 306
1943217N22144 1943 50 WP MM NOT_NAMED 1943-08-08 12:00:00 NR 21.8810 133.000 main 1041 989 __________P___ -1 21.8810 133.000 7 12 312
1943217N22144 1943 50 WP MM NOT_NAMED 1943-08-08 15:00:00 NR 22.2831 132.553 main 989 938 __________P___ -1 22.2831 132.553 7 11 315
1943217N22144 1943 50 WP MM NOT_NAMED 1943-08-08 18:00:00 NR 22.6937 132.131 main 937 887 __________P___ -1 22.6937 132.131 7 11 316
1943217N22144 1943 50 WP MM NOT_NAMED 1943-08-08 21:00:00 NR 23.1000 131.700 main 887 839 __________O___ -1 23.1000 131.700 7 11 314
1943217N22144 1943 50 WP MM NOT_NAMED 1943-08-09 00:00:00 NR 23.4893 131.242 main 838 792 __________P___ -1 23.4893 131.242 7 12 312
1943217N22144 1943 50 WP MM NOT_NAMED 1943-08-09 03:00:00 NR 23.8710 130.766 main 792 759 __________P___ -1 23.8710 130.766 7 12 310
1943217N22144 1943 50 WP MM NOT_NAMED 1943-08-09 06:00:00 NR 24.2422 130.257 main 760 720 __________P___ -1 24.2422 130.257 7 12 307
1943217N22144 1943 50 WP MM NOT_NAMED 1943-08-09 09:00:00 NR 24.6000 129.700 main 721 694 __________O___ -1 24.6000 129.700 7 13 303
1943217N22144 1943 50 WP MM NOT_NAMED 1943-08-09 12:00:00 NR 24.9477 129.071 main 698 644 __________P___ -1 24.9477 129.071 7 14 300
1943217N22144 1943 50 WP MM NOT_NAMED 1943-08-09 15:00:00 NR 25.2803 128.395 main 644 576 __________P___ -1 25.2803 128.395 7 14 298
1943217N22144 1943 50 WP MM NOT_NAMED 1943-08-09 18:00:00 NR 25.5976 127.696 main 576 511 __________P___ -1 25.5976 127.696 7 14 296
1943217N22144 1943 50 WP MM NOT_NAMED 1943-08-09 21:00:00 NR 25.9000 127.000 main 511 457 __________O___ -1 25.9000 127.000 7 13 295
1943217N22144 1943 50 WP MM NOT_NAMED 1943-08-10 00:00:00 NR 26.1472 126.356 main 457 407 __________P___ -1 26.1472 126.356 7 13 293
1943217N22144 1943 50 WP MM NOT_NAMED 1943-08-10 03:00:00 NR 26.3878 125.717 main 402 357 __________P___ -1 26.3878 125.717 7 13 294
1943217N22144 1943 50 WP MM NOT_NAMED 1943-08-10 06:00:00 NR 26.6596 125.071 main 363 311 __________P___ -1 26.6596 125.071 7 13 297
1943217N22144 1943 50 WP MM NOT_NAMED 1943-08-10 09:00:00 NR 27.0000 124.400 main 311 215 __________O___ -1 27.0000 124.400 7 16 303
1943217N22144 1943 50 WP MM NOT_NAMED 1943-08-10 12:00:00 NR 27.4997 123.603 main 215 122 __________P___ -1 27.4997 123.603 7 18 307
1943217N22144 1943 50 WP MM NOT_NAMED 1943-08-10 15:00:00 NR 28.0605 122.787 main 119 40 __________P___ -1 28.0605 122.787 7 18 309
1943217N22144 1943 50 WP MM NOT_NAMED 1943-08-10 18:00:00 NR 28.6157 122.028 main 31 0 __________P___ -1 28.6157 122.028 7 16 310
1943217N22144 1943 50 WP MM NOT_NAMED 1943-08-10 21:00:00 NR 29.1000 121.400 main 0 0 __________O___ -1 29.1000 121.400 7 12 312
1943217N22144 1943 50 WP MM NOT_NAMED 1943-08-11 00:00:00 NR 29.4141 121.002 main 0 0 __________P___ -1 29.4141 121.002 7 8 314
1943217N22144 1943 50 WP MM NOT_NAMED 1943-08-11 03:00:00 NR 29.6568 120.744 main 0 0 __________P___ -1 29.6568 120.744 7 6 320
1943217N22144 1943 50 WP MM NOT_NAMED 1943-08-11 06:00:00 NR 29.8712 120.565 main 0 0 __________P___ -1 29.8712 120.565 7 5 326
1943217N22144 1943 50 WP MM NOT_NAMED 1943-08-11 09:00:00 NR 30.1000 120.400 main 0 0 __________O___ -1 30.1000 120.400 7 7 326
1943217N22144 1943 50 WP MM NOT_NAMED 1943-08-11 12:00:00 NR 30.4197 120.138 main 0 0 __________P___ -1 30.4197 120.138 7 8 326
1943217N22144 1943 50 WP MM NOT_NAMED 1943-08-11 15:00:00 NR 30.7575 119.878 main 0 0 __________P___ -1 30.7575 119.878 7 8 327
1943217N22144 1943 50 WP MM NOT_NAMED 1943-08-11 18:00:00 NR 31.0916 119.629 main 0 0 __________P___ -1 31.0916 119.629 7 8 327
1943217N22144 1943 50 WP MM NOT_NAMED 1943-08-11 21:00:00 NR 31.4000 119.400 main 0 0 __________O___ -1 31.4000 119.400 7 7 327
1943217N22144 1943 50 WP MM NOT_NAMED 1943-08-12 00:00:00 NR 31.6576 119.191 main 0 0 __________P___ -1 31.6576 119.191 7 6 325
1943217N22144 1943 50 WP MM NOT_NAMED 1943-08-12 03:00:00 NR 31.8873 119.004 main 0 0 __________P___ -1 31.8873 119.004 7 5 326
1943217N22144 1943 50 WP MM NOT_NAMED 1943-08-12 06:00:00 NR 32.0983 118.841 main 0 0 __________P___ -1 32.0983 118.841 7 5 328
1943217N22144 1943 50 WP MM NOT_NAMED 1943-08-12 09:00:00 NR 32.3000 118.700 main 0 0 __________O___ -1 32.3000 118.700 7 5 333
1943217N22144 1943 50 WP MM NOT_NAMED 1943-08-12 12:00:00 NR 32.5151 118.594 main 0 0 __________P___ -1 32.5151 118.594 7 5 339
1943217N22144 1943 50 WP MM NOT_NAMED 1943-08-12 15:00:00 NR 32.7221 118.507 main 0 0 __________P___ -1 32.7221 118.507 7 4 340
1943217N22144 1943 50 WP MM NOT_NAMED 1943-08-12 18:00:00 NR 32.9182 118.416 main 0 0 __________P___ -1 32.9182 118.416 7 4 336
1943217N22144 1943 50 WP MM NOT_NAMED 1943-08-12 21:00:00 NR 33.1000 118.300 main 0 0 __________O___ -1 33.1000 118.300 7 4 328
1943217N22144 1943 50 WP MM NOT_NAMED 1943-08-13 00:00:00 NR 33.2928 118.137 main 0 0 __________P___ -1 33.2928 118.137 7 5 321
1943217N22144 1943 50 WP MM NOT_NAMED 1943-08-13 03:00:00 NR 33.4674 117.946 main 0 0 __________P___ -1 33.4674 117.946 7 5 313
1943217N22144 1943 50 WP MM NOT_NAMED 1943-08-13 06:00:00 NR 33.6084 117.731 main 0 0 __________P___ -1 33.6084 117.731 7 4 302
1943217N22144 1943 50 WP MM NOT_NAMED 1943-08-13 09:00:00 NR 33.7000 117.500 main 0 0 __________O___ -1 33.7000 117.500 7 4 288
1943217N22144 1943 50 WP MM NOT_NAMED 1943-08-13 12:00:00 NR 33.7374 117.268 main 0 0 __________P___ -1 33.7374 117.268 7 4 274
1943217N22144 1943 50 WP MM NOT_NAMED 1943-08-13 15:00:00 NR 33.7249 117.022 main 0 0 __________P___ -1 33.7249 117.022 7 4 261
1943217N22144 1943 50 WP MM NOT_NAMED 1943-08-13 18:00:00 NR 33.6749 116.765 main 0 0 __________P___ -1 33.6749 116.765 7 5 254
1943217N22144 1943 50 WP MM NOT_NAMED 1943-08-13 21:00:00 NR 33.6000 116.500 main 0 0 __________O___ -1 33.6000 116.500 7 5 253
1943217N22144 1943 50 WP MM NOT_NAMED 1943-08-14 00:00:00 NR 33.5338 116.224 main 0 0 __________P___ -1 33.5338 116.224 7 5 252
1943217N22144 1943 50 WP MM NOT_NAMED 1943-08-14 03:00:00 NR 33.4450 115.943 main 0 0 __________P___ -1 33.4450 115.943 7 5 247
1943217N22144 1943 50 WP MM NOT_NAMED 1943-08-14 06:00:00 NR 33.3338 115.665 main 0 0 __________P___ -1 33.3338 115.665 7 5 242
1943217N22144 1943 50 WP MM NOT_NAMED 1943-08-14 09:00:00 NR 33.2000 115.400 main 0 0 __________O___ -1 33.2000 115.400 7 5 235
1943217N22144 1943 50 WP MM NOT_NAMED 1943-08-14 12:00:00 NR 33.0539 115.194 main 0 0 __________P___ -1 33.0539 115.194 7 5 227
1943217N22144 1943 50 WP MM NOT_NAMED 1943-08-14 15:00:00 NR 32.8863 114.996 main 0 0 __________P___ -1 32.8863 114.996 7 5 225
1943217N22144 1943 50 WP MM NOT_NAMED 1943-08-14 18:00:00 NR 32.7006 114.775 main 0 0 __________P___ -1 32.7006 114.775 7 6 227
1943217N22144 1943 50 WP MM NOT_NAMED 1943-08-14 21:00:00 NR 32.5000 114.500 main 0 0 __________O___ -1 32.5000 114.500 7 7 238
1943217N22144 1943 50 WP MM NOT_NAMED 1943-08-15 00:00:00 NR 32.3354 114.075 main 0 0 __________P___ -1 32.3354 114.075 7 8 245
1943217N22144 1943 50 WP MM NOT_NAMED 1943-08-15 03:00:00 NR 32.1494 113.604 main 0 0 __________P___ -1 32.1494 113.604 7 9 242
1943217N22144 1943 50 WP MM NOT_NAMED 1943-08-15 06:00:00 NR 31.9135 113.156 main 0 0 __________P___ -1 31.9135 113.156 7 9 231
1943217N22144 1943 50 WP MM NOT_NAMED 1943-08-15 09:00:00 NR 31.6000 112.800 main 0 0 __________O___ -1 31.6000 112.800 7 9 214
1943217N22144 1943 50 WP MM NOT_NAMED 1943-08-15 12:00:00 NR 31.1909 112.586 main 0 0 __________P___ -1 31.1909 112.586 7 9 196
1943217N22144 1943 50 WP MM NOT_NAMED 1943-08-15 15:00:00 NR 30.7038 112.492 main 0 0 __________P___ -1 30.7038 112.492 7 10 186
1943217N22144 1943 50 WP MM NOT_NAMED 1943-08-15 18:00:00 NR 30.1649 112.476 main 0 0 __________P___ -1 30.1649 112.476 7 11 0
1943217N22144 1943 50 WP MM NOT_NAMED 1943-08-15 21:00:00 NR 29.6000 112.500 main 0 __________O___ -1 29.6000 112.500 7 11 178

Digital Typhoon Data and Search

About IBTrACS Database

This database is a web-friendly format of International Best Track Archive for Climate Stewardship (IBTrACS), a global best track data archive curated by NOAA dating back to 1842.

Updated: 2021-10-27